Sunday, July 22, 2018, 8:53 AM EDT
Back to Local

KLWM, Lawrence Municipal Airport

Location: North Andover, MA, United States Lat: 42.717
Local Time: 8:53 AM EDT (12:53 GMT) Lon: -71.133
Time Zone: US/Eastern Elev: 147 ft

Show me the last for .
Show Coded

Time T Td Feel RH Dir Speed Gust Alt SLP Vis Weather Sky Remarks
2018-07-22 08:41 70 65 - 84 70° 10 - 30.11 - 1 -RA OVC005 1-hr Precip Total: 0.05"
2018-07-22 08:30 70 65 - 84 60° 14 17 30.10 - 2 -RA OVC005 1-hr Precip Total: 0.05"
2018-07-22 08:20 70 65 - 84 70° 9 - 30.11 - 3 -RA OVC004 1-hr Precip Total: 0.05"
2018-07-22 07:54 69 64 - 84 70° 10 - 30.10 30.10 1 -RA OVC004 1-hr Precip Total: Trace
6-hr Precip Total (8am): 0.00"
6-hr Min Temp (8am): 66.9°F
6-hr Max Temp (8am): 69.1°F
2018-07-22 07:49 70 64 - 83 60° 10 - 30.09 - 1 HZ OVC004 1-hr Precip Total: Trace
2018-07-22 07:22 69 64 - 84 70° 13 - 30.11 - 1 HZ OVC005 1-hr Precip Total: Trace
2018-07-22 07:15 69 64 - 84 60° 13 - 30.11 - 2 HZ OVC005 1-hr Precip Total: Trace
2018-07-22 07:02 68 63 - 83 70° 10 - 30.11 - 1 -RA OVC005 1-hr Precip Total: Trace
2018-07-22 06:54 68 63 - 83 60° 10 - 30.10 30.10 2 HZ OVC006 1-hr Precip Total: Trace
2018-07-22 06:19 69 63 - 80 70° 12 - 30.11 - 8 -RA OVC008 1-hr Precip Total: Trace
2018-07-22 05:54 69 62 - 78 50° 12 - 30.10 30.09 9 -RA OVC011 1-hr Precip Total: Trace
2018-07-22 04:54 69 61 - 75 60° 8 - 30.11 30.10 10 BKN010 OVC065 None
2018-07-22 03:54 68 61 - 78 60° 7 - 30.11 30.11 10 OVC011 None
2018-07-22 03:26 68 60 - 75 60° 6 - 30.12 - 10 BKN011 OVC080 None
2018-07-22 02:54 67 60 - 78 50° 7 - 30.11 30.11 10 SCT012 OVC085 None
2018-07-22 01:54 67 59 - 75 70° 5 - 30.12 30.12 10 FEW013 BKN085 6-hr Min Temp (2am): 66.0°F
6-hr Max Temp (2am): 72.0°F
2018-07-22 00:54 66 59 - 78 70° 3 - 30.13 30.12 10 CLR 24-hr Min Temp (1am): 59.0°F
24-hr Max Temp (1am): 80.1°F
2018-07-21 23:54 67 59 - 75 60° 6 - 30.14 30.14 10 FEW065 None
2018-07-21 22:54 68 59 - 72 70° 5 - 30.16 30.15 10 OVC060 None
2018-07-21 22:15 68 59 - 72 70° 7 - 30.16 - 10 SCT021 BKN055 None
2018-07-21 21:54 68 59 - 72 60° 6 - 30.16 30.16 10 BKN021 None
2018-07-21 20:54 70 59 - 68 100° 5 - 30.17 30.16 10 BKN021 None
2018-07-21 19:54 71 58 76 63 Variable 6 - 30.16 - 10 SCT028 6-hr Min Temp (8pm): 71.1°F
6-hr Max Temp (8pm): 80.1°F
2018-07-21 19:11 72 57 76 59 110° 9 - 30.16 - 10 BKN027 None
2018-07-21 18:54 73 58 77 59 Variable 6 - 30.16 30.15 10 SCT027 None
2018-07-21 17:54 75 59 78 57 80° 10 - 30.14 30.14 10 SCT027 None
2018-07-21 16:54 77 59 79 53 90° 10 - 30.13 30.13 10 FEW031 None
2018-07-21 15:54 79 59 80 50 90° 8 - 30.15 30.14 10 SCT033 None
2018-07-21 14:54 80 59 81 48 80° 10 - 30.16 30.16 10 BKN044 None
2018-07-21 13:54 79 58 80 48 110° 8 - 30.17 30.16 10 SCT041 None
2018-07-21 12:54 79 55 79 43 Variable 7 - 30.18 30.17 10 FEW041 None
2018-07-21 11:54 79 53 79 40 Variable 5 - 30.19 30.18 10 CLR None
2018-07-21 10:54 77 54 78 44 100° 5 - 30.19 30.18 10 FEW041 None
2018-07-21 09:54 76 55 78 48 Variable 5 - 30.19 30.19 10 CLR None
2018-07-21 08:54 73 - - 0 - Calm - 30.19 30.19 10 CLR None

Support USWX by starting your Amazon purchase here.